Pagina principale
METAR-TAF:

METAR-TAF

Aeroporti :

Aeroporto Internazionale di Bassora

Bassora, Iraq

latitudine: 30-32-56N, longitudine: 47-39-45E, altezza: 1 m

Osservazione

Il bollettino è stato emesso 2 ore e 32 minuti fa, alle 00:00 UTC
Vento 4 kt da nord-est
Temperature 18°C
Umidità 64%
Pressione 1012 hPa
Visibilità: 8000 m

METAR: ORMM 250000Z 04004KT 8000 NSC 18/11 Q1012 NOSIG

Ora: 05:32 (02:32 UTC)

Previsione

Il bollettino è stato emesso 4 ore e 32 minuti fa, alle 22:00 UTC
Previsione valida dal 25 alle 00 UTC al 25 alle 24 UTC
Vento 4 kt da ovest
Visibilità 10 km o più
nessuna nube inferiore a 1500 m e nessun cumulonembo
Temporaneamente
dal 25 alle 11 UTC al 25 alle 15 UTC
Vento 3 kt da direzioni variabili

TAF: ORMM 242200Z 2500/2524 27004KT CAVOK TEMPO 2511/2515 VRB03KT

Osservazioni e previsioni meteorologiche di più di 4000 aeroporti (messaggi METAR e TAF).

Le stazioni disponibili sono rappresentate dai dischi gialli e rossi sulla carta.

Puntare il mouse per vedere il nome della stazione.

Clicca sopra per visualizzare le osservazioni e previsioni meteorologiche.

Per cambiare la mappa : fare clic sui pulsanti verdi con una croce nera per ingrandire, il pulsante verde con un trattino per diminuire, o sulla freccia verde per le mappe adiacenti.


METAR-TAF: